createdAt,value
2018-06-04T00:01:14.631Z,68.50
2018-06-04T00:03:46.309Z,67.53
2018-06-04T00:06:19.380Z,62.65
2018-06-04T00:08:52.600Z,68.85
2018-06-04T00:11:23.792Z,65.10
2018-06-04T00:13:55.697Z,69.45
2018-06-04T00:16:29.182Z,67.78
2018-06-04T00:19:03.828Z,66.10
2018-06-04T00:21:36.805Z,61.50
2018-06-04T00:24:06.806Z,75.97
2018-06-04T00:26:40.023Z,62.00
2018-06-04T00:29:11.713Z,67.85
2018-06-04T00:31:43.298Z,65.82
2018-06-04T00:34:15.004Z,67.68
2018-06-04T00:36:46.462Z,72.03
2018-06-04T00:39:19.427Z,69.32
2018-06-04T00:41:51.053Z,67.40
2018-06-04T00:44:25.527Z,72.45
2018-06-04T00:46:59.715Z,78.97
2018-06-04T00:49:32.102Z,71.28
2018-06-04T00:52:02.414Z,62.38
2018-06-04T00:54:37.036Z,69.20
2018-06-04T00:57:09.352Z,66.50
2018-06-04T00:59:42.910Z,63.00
2018-06-04T01:02:14.302Z,58.63
2018-06-04T01:04:45.895Z,62.83
2018-06-04T01:07:19.121Z,67.72
2018-06-04T01:09:50.906Z,59.85
2018-06-04T01:12:24.974Z,66.62
2018-06-04T01:14:58.173Z,68.57
2018-06-04T01:17:31.889Z,62.53
2018-06-04T01:20:04.851Z,75.60
2018-06-04T01:22:36.961Z,75.15
2018-06-04T01:25:10.107Z,72.40
2018-06-04T01:27:43.483Z,80.87
2018-06-04T01:30:19.293Z,77.87
2018-06-04T01:32:52.225Z,78.28
2018-06-04T01:35:25.032Z,78.18
2018-06-04T01:37:56.618Z,75.65
2018-06-04T01:40:28.348Z,77.90
2018-06-04T01:43:01.684Z,92.30
2018-06-04T01:45:33.506Z,91.85
2018-06-04T01:48:04.029Z,84.30
2018-06-04T01:50:36.180Z,88.68
2018-06-04T01:53:07.881Z,92.45
2018-06-04T01:55:39.572Z,88.62
2018-06-04T01:58:12.837Z,88.30
2018-06-04T02:00:42.998Z,100.85
2018-06-04T02:03:16.219Z,97.32
2018-06-04T02:05:48.015Z,91.45
2018-06-04T02:08:19.784Z,86.53
2018-06-04T02:10:49.801Z,94.97
2018-06-04T02:13:23.026Z,87.62
2018-06-04T02:15:54.606Z,103.97
2018-06-04T02:18:27.805Z,90.47
2018-06-04T02:21:02.493Z,96.53
2018-06-04T02:23:34.137Z,109.10
2018-06-04T02:26:08.772Z,95.15
2018-06-04T02:28:40.228Z,101.62
2018-06-04T02:31:13.500Z,94.03
2018-06-04T02:33:45.065Z,89.45
2018-06-04T02:36:16.712Z,112.75
2018-06-04T02:38:50.131Z,103.10
2018-06-04T02:41:24.376Z,101.05
2018-06-04T02:43:54.388Z,94.55
2018-06-04T02:46:28.814Z,106.85
2018-06-04T02:49:00.420Z,116.93
2018-06-04T02:51:32.474Z,100.85
2018-06-04T02:54:03.324Z,87.53
2018-06-04T02:56:36.432Z,87.00
2018-06-04T02:59:07.212Z,94.00
2018-06-04T03:01:37.876Z,93.28
2018-06-04T03:04:08.189Z,87.95
2018-06-04T03:06:39.573Z,83.03
2018-06-04T03:09:12.002Z,79.10
2018-06-04T03:11:46.861Z,77.50
2018-06-04T03:14:21.207Z,84.55
2018-06-04T03:16:54.740Z,86.85
2018-06-04T03:19:29.251Z,85.53
2018-06-04T03:22:02.591Z,92.90
2018-06-04T03:24:34.564Z,86.47
2018-06-04T03:27:08.249Z,92.25
2018-06-04T03:29:41.402Z,92.62
2018-06-04T03:32:14.571Z,92.30
2018-06-04T03:34:47.244Z,91.63
2018-06-04T03:37:20.422Z,99.00
2018-06-04T03:39:52.179Z,82.22
2018-06-04T03:42:27.098Z,76.15
2018-06-04T03:45:01.636Z,87.55
2018-06-04T03:47:35.125Z,76.93
2018-06-04T03:50:06.898Z,79.43
2018-06-04T03:52:38.720Z,85.70
2018-06-04T03:55:11.729Z,78.87
2018-06-04T03:57:44.929Z,84.65
2018-06-04T04:00:17.943Z,84.28
2018-06-04T04:02:49.610Z,81.50
2018-06-04T04:05:22.765Z,75.93
2018-06-04T04:07:54.510Z,77.87
2018-06-04T04:10:26.132Z,79.85
2018-06-04T04:12:57.791Z,87.95
2018-06-04T04:15:29.325Z,87.45
2018-06-04T04:17:59.683Z,80.75
2018-06-04T04:20:30.482Z,80.80
2018-06-04T04:23:02.512Z,92.35
2018-06-04T04:25:35.507Z,74.87
2018-06-04T04:28:07.147Z,87.00
2018-06-04T04:30:40.260Z,90.47
2018-06-04T04:33:12.291Z,86.25
2018-06-04T04:35:47.008Z,84.72
2018-06-04T04:38:20.801Z,84.97
2018-06-04T04:40:52.690Z,82.78
2018-06-04T04:43:27.115Z,74.07
2018-06-04T04:46:01.724Z,85.85
2018-06-04T04:48:35.384Z,77.15
2018-06-04T04:51:09.874Z,71.87
2018-06-04T04:53:41.642Z,71.85
2018-06-04T04:56:13.871Z,83.97
2018-06-04T04:58:47.294Z,80.57
2018-06-04T05:01:19.032Z,80.55
2018-06-04T05:03:50.615Z,78.37
2018-06-04T05:06:23.974Z,79.62
2018-06-04T05:08:58.569Z,79.32
2018-06-04T05:11:32.108Z,87.93
2018-06-04T05:14:03.531Z,79.93
2018-06-04T05:16:36.531Z,73.22
2018-06-04T05:19:08.562Z,76.40
2018-06-04T05:21:41.619Z,71.43
2018-06-04T05:24:13.322Z,69.97
2018-06-04T05:26:44.820Z,74.93
2018-06-04T05:29:16.795Z,84.97
2018-06-04T05:31:50.030Z,79.18
2018-06-04T05:34:24.763Z,83.37
2018-06-04T05:36:56.355Z,83.50
2018-06-04T05:39:29.684Z,80.82
2018-06-04T05:42:02.726Z,66.70
2018-06-04T05:44:32.746Z,70.53
2018-06-04T05:47:04.430Z,71.57
2018-06-04T05:49:36.312Z,72.65
2018-06-04T05:52:09.436Z,63.92
2018-06-04T05:54:41.096Z,72.47
2018-06-04T05:57:14.953Z,66.25
2018-06-04T05:59:44.835Z,73.25
2018-06-04T06:02:17.316Z,74.00
2018-06-04T06:04:49.166Z,65.35
2018-06-04T06:07:24.109Z,73.10
2018-06-04T06:09:56.018Z,74.37
2018-06-04T06:12:29.468Z,71.37
2018-06-04T06:15:03.069Z,74.55
2018-06-04T06:17:37.847Z,73.05
2018-06-04T06:20:11.572Z,72.12
2018-06-04T06:22:44.802Z,66.78
2018-06-04T06:25:19.661Z,63.10
2018-06-04T06:27:52.729Z,70.22
2018-06-04T06:30:26.216Z,69.43
2018-06-04T06:32:56.924Z,77.15
2018-06-04T06:35:29.228Z,63.20
2018-06-04T06:38:00.906Z,54.80
2018-06-04T06:40:35.741Z,49.92
2018-06-04T06:43:08.802Z,58.85
2018-06-04T06:45:41.854Z,63.87
2018-06-04T06:48:15.635Z,57.03
2018-06-04T06:50:50.129Z,57.85
2018-06-04T06:53:21.845Z,58.67
2018-06-04T06:55:53.494Z,52.70
2018-06-04T06:58:26.523Z,57.47
2018-06-04T07:00:58.483Z,58.63
2018-06-04T07:03:33.251Z,66.10
2018-06-04T07:06:06.131Z,64.25
2018-06-04T07:08:39.541Z,53.60
2018-06-04T07:11:12.871Z,55.92
2018-06-04T07:13:42.888Z,57.90
2018-06-04T07:16:16.445Z,56.08
2018-06-04T07:18:49.422Z,53.60
2018-06-04T07:21:19.427Z,57.42
2018-06-04T07:23:50.919Z,60.78
2018-06-04T07:26:23.889Z,56.65
2018-06-04T07:28:56.916Z,59.45
2018-06-04T07:31:28.568Z,57.50
2018-06-04T07:34:01.826Z,54.72
2018-06-04T07:36:34.996Z,55.95
2018-06-04T07:39:11.081Z,56.47
2018-06-04T07:41:44.275Z,61.05
2018-06-04T07:44:19.045Z,56.13
2018-06-04T07:46:50.692Z,58.45
2018-06-04T07:49:22.288Z,54.28
2018-06-04T07:51:54.918Z,63.35
2018-06-04T07:54:28.101Z,54.25
2018-06-04T07:57:00.078Z,61.90
2018-06-04T07:59:32.948Z,55.10
2018-06-04T08:02:05.670Z,53.95
2018-06-04T08:04:38.614Z,56.03
2018-06-04T08:07:11.788Z,54.30
2018-06-04T08:09:43.448Z,62.35
2018-06-04T08:12:13.300Z,53.92
2018-06-04T08:14:46.143Z,58.10
2018-06-04T08:17:17.762Z,52.20
2018-06-04T08:19:52.280Z,47.85
2018-06-04T08:22:23.890Z,54.75
2018-06-04T08:24:54.476Z,50.25
2018-06-04T08:27:25.884Z,54.28
2018-06-04T08:29:57.509Z,49.03
2018-06-04T08:32:30.550Z,48.08
2018-06-04T08:35:03.930Z,46.60
2018-06-04T08:37:35.407Z,51.37
2018-06-04T08:40:09.091Z,47.10
2018-06-04T08:42:40.753Z,46.28
2018-06-04T08:45:15.414Z,51.78
2018-06-04T08:47:49.969Z,50.17
2018-06-04T08:50:20.063Z,50.67
2018-06-04T08:52:52.437Z,48.63
2018-06-04T08:55:24.397Z,50.38
2018-06-04T08:57:56.493Z,47.40
2018-06-04T09:00:28.405Z,51.60
2018-06-04T09:03:03.180Z,52.15
2018-06-04T09:05:35.558Z,42.08
2018-06-04T09:08:07.084Z,44.35
2018-06-04T09:10:42.039Z,49.20
2018-06-04T09:13:13.925Z,45.15
2018-06-04T09:15:46.039Z,49.08
2018-06-04T09:18:19.287Z,42.88
2018-06-04T09:20:49.251Z,50.17
2018-06-04T09:23:23.061Z,48.58
2018-06-04T09:25:56.703Z,40.67
2018-06-04T09:28:29.014Z,40.63
2018-06-04T09:31:00.504Z,41.70
2018-06-04T09:33:32.612Z,49.67
2018-06-04T09:36:02.577Z,44.75
2018-06-04T09:38:34.224Z,40.80
2018-06-04T09:41:07.165Z,43.35
2018-06-04T09:43:40.228Z,39.63
2018-06-04T09:46:10.209Z,49.13
2018-06-04T09:48:42.103Z,45.40
2018-06-04T09:51:13.612Z,52.33
2018-06-04T09:53:45.505Z,47.65
2018-06-04T09:56:16.141Z,53.38
2018-06-04T09:58:47.910Z,51.63
2018-06-04T10:01:22.477Z,50.92
2018-06-04T10:03:54.053Z,45.42
2018-06-04T10:06:27.063Z,48.55
2018-06-04T10:08:56.966Z,46.60
2018-06-04T10:11:28.396Z,44.13
2018-06-04T10:14:00.052Z,39.60
2018-06-04T10:16:31.610Z,44.25
2018-06-04T10:19:04.908Z,42.55
2018-06-04T10:21:38.052Z,47.88
2018-06-04T10:24:10.074Z,42.78
2018-06-04T10:26:43.380Z,42.40
2018-06-04T10:29:16.669Z,43.85
2018-06-04T10:31:49.624Z,50.53
2018-06-04T10:34:23.643Z,41.20
2018-06-04T10:36:56.471Z,41.20
2018-06-04T10:39:29.650Z,43.78
2018-06-04T10:42:02.817Z,47.30
2018-06-04T10:44:37.149Z,43.17
2018-06-04T10:47:10.074Z,42.72
2018-06-04T10:49:41.778Z,43.10
2018-06-04T10:52:12.602Z,44.28
2018-06-04T10:54:44.657Z,46.40
2018-06-04T10:57:19.493Z,46.80
2018-06-04T10:59:53.940Z,50.65
2018-06-04T11:02:27.868Z,48.87
2018-06-04T11:05:03.249Z,50.00
2018-06-04T11:07:37.881Z,49.92
2018-06-04T11:10:09.579Z,52.03
2018-06-04T11:12:43.935Z,49.38
2018-06-04T11:15:16.699Z,49.45
2018-06-04T11:17:50.443Z,47.70
2018-06-04T11:20:20.523Z,43.03
2018-06-04T11:22:53.306Z,44.83
2018-06-04T11:25:26.848Z,44.67
2018-06-04T11:27:58.738Z,42.47
2018-06-04T11:30:31.878Z,41.15
2018-06-04T11:33:06.384Z,42.22
2018-06-04T11:35:36.347Z,37.63
2018-06-04T11:38:09.274Z,35.30
2018-06-04T11:40:42.495Z,34.28
2018-06-04T11:43:15.411Z,39.22
2018-06-04T11:45:47.358Z,34.42
2018-06-04T11:48:17.373Z,31.80
2018-06-04T11:50:49.249Z,33.05
2018-06-04T11:53:22.308Z,31.15
2018-06-04T11:55:54.903Z,33.20
2018-06-04T11:58:26.559Z,35.50
2018-06-04T12:00:57.949Z,31.55
2018-06-04T12:03:32.327Z,33.22
2018-06-04T12:06:02.238Z,30.08
2018-06-04T12:08:33.712Z,29.92
2018-06-04T12:11:05.246Z,28.15
2018-06-04T12:13:39.617Z,29.12
2018-06-04T12:16:11.371Z,33.97
2018-06-04T12:18:42.783Z,32.65
2018-06-04T12:21:15.288Z,36.45
2018-06-04T12:23:48.716Z,33.13
2018-06-04T12:26:23.179Z,36.65
2018-06-04T12:28:57.571Z,32.53
2018-06-04T12:31:29.514Z,31.90
2018-06-04T12:34:03.772Z,32.40
2018-06-04T12:36:37.979Z,29.45
2018-06-04T12:39:11.915Z,31.37
2018-06-04T12:41:46.412Z,29.50
2018-06-04T12:44:19.328Z,27.65
2018-06-04T12:46:52.090Z,29.05
2018-06-04T12:49:23.555Z,25.58
2018-06-04T12:51:57.929Z,22.27
2018-06-04T12:54:29.643Z,21.30
2018-06-04T12:57:02.559Z,23.40
2018-06-04T12:59:33.960Z,20.55
2018-06-04T13:02:05.046Z,18.87
2018-06-04T13:04:37.937Z,20.80
2018-06-04T13:07:11.140Z,17.37
2018-06-04T13:09:44.011Z,21.25
2018-06-04T13:12:17.035Z,18.37
2018-06-04T13:14:48.497Z,16.00
2018-06-04T13:17:21.035Z,19.67
2018-06-04T13:19:50.946Z,17.45
2018-06-04T13:22:22.496Z,18.52
2018-06-04T13:24:53.989Z,22.73
2018-06-04T13:27:25.427Z,18.45
2018-06-04T13:29:58.358Z,19.00
2018-06-04T13:32:33.019Z,22.58
2018-06-04T13:35:05.841Z,20.55
2018-06-04T13:37:38.073Z,19.52
2018-06-04T13:40:10.836Z,19.65
2018-06-04T13:42:43.753Z,18.08
2018-06-04T13:45:18.068Z,16.35
2018-06-04T13:47:47.909Z,16.33
2018-06-04T13:50:19.790Z,17.83
2018-06-04T13:52:52.552Z,16.62
2018-06-04T13:55:23.904Z,19.95
2018-06-04T13:57:57.094Z,16.65
2018-06-04T14:00:27.008Z,16.05
2018-06-04T14:02:56.894Z,16.00
2018-06-04T14:05:30.188Z,15.90
2018-06-04T14:08:00.012Z,18.60
2018-06-04T14:10:29.908Z,13.95
2018-06-04T14:13:00.726Z,14.73
2018-06-04T14:15:33.754Z,14.20
2018-06-04T14:18:06.632Z,15.88
2018-06-04T14:20:36.539Z,14.10
2018-06-04T14:23:07.892Z,13.05
2018-06-04T14:25:42.344Z,17.37
2018-06-04T14:28:12.874Z,13.70
2018-06-04T14:30:43.259Z,15.57
2018-06-04T14:33:16.495Z,13.73
2018-06-04T14:35:49.455Z,13.38
2018-06-04T14:38:20.887Z,13.62
2018-06-04T14:40:50.808Z,13.70
2018-06-04T14:43:22.093Z,11.70
2018-06-04T14:45:55.441Z,10.18
2018-06-04T14:48:29.822Z,11.35
2018-06-04T14:51:01.214Z,10.63
2018-06-04T14:53:33.258Z,12.05
2018-06-04T14:56:03.303Z,10.55
2018-06-04T14:58:36.474Z,10.50
2018-06-04T15:01:08.870Z,11.05
2018-06-04T15:03:39.502Z,10.02
2018-06-04T15:06:12.326Z,11.20
2018-06-04T15:08:45.302Z,9.85
2018-06-04T15:11:19.604Z,8.20
2018-06-04T15:13:51.537Z,10.70
2018-06-04T15:16:24.406Z,7.82
2018-06-04T15:18:57.430Z,9.70
2018-06-04T15:21:28.935Z,8.50
2018-06-04T15:24:02.182Z,8.25
2018-06-04T15:26:33.501Z,7.50
2018-06-04T15:29:06.503Z,9.32
2018-06-04T15:31:37.872Z,9.52
2018-06-04T15:34:11.818Z,8.73
2018-06-04T15:36:42.289Z,7.93
2018-06-04T15:39:15.296Z,9.38
2018-06-04T15:41:48.552Z,13.85
2018-06-04T15:44:20.506Z,9.80
2018-06-04T15:46:50.397Z,8.23
2018-06-04T15:49:23.187Z,10.98
2018-06-04T15:51:55.195Z,9.35
2018-06-04T15:54:28.187Z,10.10
2018-06-04T15:57:01.176Z,7.82
2018-06-04T15:59:34.151Z,9.82
2018-06-04T16:02:09.511Z,9.40
2018-06-04T16:04:43.814Z,9.40
2018-06-04T16:07:15.472Z,14.70
2018-06-04T16:09:46.930Z,69.50
2018-06-04T16:12:21.739Z,345.52
2018-06-04T16:14:53.734Z,48.42
2018-06-04T16:17:26.321Z,40.55
2018-06-04T16:19:58.344Z,14.95
2018-06-04T16:22:29.222Z,11.75
2018-06-04T16:25:00.785Z,17.45
2018-06-04T16:27:31.162Z,11.63
2018-06-04T16:30:04.067Z,13.85
2018-06-04T16:32:33.194Z,13.27
2018-06-04T16:35:06.684Z,13.40
2018-06-04T16:37:38.609Z,15.02
2018-06-04T16:40:11.523Z,12.05
2018-06-04T16:42:44.423Z,18.70
2018-06-04T16:45:16.132Z,12.35
2018-06-04T16:47:47.579Z,15.65
2018-06-04T16:50:20.532Z,14.15
2018-06-04T16:52:50.613Z,13.73
2018-06-04T16:55:23.423Z,14.95
2018-06-04T16:57:54.774Z,15.82
2018-06-04T17:00:27.813Z,14.80
2018-06-04T17:03:00.653Z,16.83
2018-06-04T17:05:32.377Z,17.37
2018-06-04T17:08:03.736Z,15.75
2018-06-04T17:10:35.305Z,14.10
2018-06-04T17:13:06.377Z,16.15
2018-06-04T17:15:39.252Z,19.20
2018-06-04T17:18:11.628Z,17.48
2018-06-04T17:20:44.543Z,13.32
2018-06-04T17:23:16.085Z,13.60
2018-06-04T17:25:48.247Z,17.48
2018-06-04T17:28:22.284Z,16.50
2018-06-04T17:30:55.209Z,18.45
2018-06-04T17:33:26.744Z,15.50
2018-06-04T17:35:58.152Z,14.45
2018-06-04T17:38:31.405Z,18.00
2018-06-04T17:41:02.737Z,17.10
2018-06-04T17:43:34.047Z,18.40
2018-06-04T17:46:07.158Z,16.25
2018-06-04T17:48:37.045Z,17.75
2018-06-04T17:51:10.083Z,19.62
2018-06-04T17:53:42.436Z,16.58
2018-06-04T17:56:12.431Z,15.15
2018-06-04T17:58:46.746Z,15.63
2018-06-04T18:01:19.719Z,17.42
2018-06-04T18:03:49.310Z,14.23
2018-06-04T18:06:21.634Z,18.62
2018-06-04T18:08:54.632Z,14.20
2018-06-04T18:11:26.855Z,17.12
2018-06-04T18:13:58.424Z,16.30
2018-06-04T18:16:30.070Z,16.55
2018-06-04T18:19:01.813Z,18.35
2018-06-04T18:21:32.414Z,19.23
2018-06-04T18:24:03.902Z,20.37
2018-06-04T18:26:36.962Z,17.15
2018-06-04T18:29:11.403Z,17.12
2018-06-04T18:31:42.973Z,17.35
2018-06-04T18:34:14.971Z,15.73
2018-06-04T18:36:48.191Z,16.90
2018-06-04T18:39:20.268Z,15.50
2018-06-04T18:41:51.718Z,21.35
2018-06-04T18:44:23.405Z,15.13
2018-06-04T18:46:55.045Z,16.77
2018-06-04T18:49:28.351Z,15.40
2018-06-04T18:52:00.110Z,17.23
2018-06-04T18:54:34.932Z,16.08
2018-06-04T18:57:08.701Z,15.18
2018-06-04T18:59:40.940Z,17.48
2018-06-04T19:02:14.019Z,17.50
2018-06-04T19:04:46.148Z,19.20
2018-06-04T19:07:20.986Z,13.68
2018-06-04T19:09:52.818Z,15.13
2018-06-04T19:12:23.090Z,16.45
2018-06-04T19:14:56.204Z,15.38
2018-06-04T19:17:27.118Z,16.17
2018-06-04T19:19:58.637Z,15.43
2018-06-04T19:22:28.683Z,14.13
2018-06-04T19:25:03.509Z,17.77
2018-06-04T19:27:36.597Z,19.60
2018-06-04T19:30:10.890Z,18.15
2018-06-04T19:32:42.300Z,18.27
2018-06-04T19:35:12.359Z,16.37
2018-06-04T19:37:45.588Z,15.52
2018-06-04T19:40:17.518Z,17.98
2018-06-04T19:42:50.538Z,17.27
2018-06-04T19:45:23.492Z,16.80
2018-06-04T19:47:53.416Z,19.45
2018-06-04T19:50:26.331Z,16.40
2018-06-04T19:52:57.943Z,18.65
2018-06-04T19:55:29.861Z,19.33
2018-06-04T19:58:01.593Z,17.45
2018-06-04T20:00:36.501Z,15.77
2018-06-04T20:03:07.951Z,16.98
2018-06-04T20:05:41.091Z,17.37
2018-06-04T20:08:11.173Z,18.20
2018-06-04T20:10:45.457Z,17.55
2018-06-04T20:13:19.899Z,16.62
2018-06-04T20:15:54.477Z,17.90
2018-06-04T20:18:26.506Z,16.95
2018-06-04T20:21:01.417Z,19.05
2018-06-04T20:23:32.901Z,17.83
2018-06-04T20:26:05.910Z,20.37
2018-06-04T20:28:38.887Z,19.02
2018-06-04T20:31:13.602Z,17.17
2018-06-04T20:33:46.865Z,19.92
2018-06-04T20:36:18.437Z,20.15
2018-06-04T20:38:51.679Z,20.17
2018-06-04T20:41:24.904Z,20.42
2018-06-04T20:43:59.828Z,20.10
2018-06-04T20:46:34.267Z,19.75
2018-06-04T20:49:06.018Z,17.70
2018-06-04T20:51:36.018Z,21.62
2018-06-04T20:54:07.555Z,23.40
2018-06-04T20:56:39.364Z,19.15
2018-06-04T20:59:11.038Z,20.67
2018-06-04T21:01:44.299Z,21.27
2018-06-04T21:04:16.039Z,21.48
2018-06-04T21:06:48.981Z,19.73
2018-06-04T21:09:22.246Z,21.87
2018-06-04T21:11:53.751Z,21.00
2018-06-04T21:14:25.536Z,22.55
2018-06-04T21:16:57.190Z,20.80
2018-06-04T21:19:30.304Z,21.08
2018-06-04T21:22:02.081Z,23.62
2018-06-04T21:24:32.096Z,23.65
2018-06-04T21:27:06.698Z,21.08
2018-06-04T21:29:38.443Z,24.25
2018-06-04T21:32:11.502Z,24.10
2018-06-04T21:34:41.536Z,22.20
2018-06-04T21:37:13.643Z,23.40
2018-06-04T21:39:45.358Z,23.00
2018-06-04T21:42:18.528Z,26.15
2018-06-04T21:44:50.540Z,24.95
2018-06-04T21:47:22.182Z,26.00
2018-06-04T21:49:55.396Z,23.67
2018-06-04T21:52:28.568Z,25.98
2018-06-04T21:55:01.504Z,22.52
2018-06-04T21:57:33.112Z,25.83
2018-06-04T22:00:03.967Z,22.75
2018-06-04T22:02:37.066Z,25.95
2018-06-04T22:05:10.053Z,26.02
2018-06-04T22:07:43.736Z,24.25
2018-06-04T22:10:18.371Z,25.60
2018-06-04T22:12:51.034Z,23.10
2018-06-04T22:15:24.352Z,24.15
2018-06-04T22:17:58.748Z,23.50
2018-06-04T22:20:31.706Z,25.30
2018-06-04T22:23:05.179Z,24.90
2018-06-04T22:25:38.405Z,23.77
2018-06-04T22:28:11.769Z,30.50
2018-06-04T22:30:44.773Z,25.95
2018-06-04T22:33:19.555Z,29.90
2018-06-04T22:35:54.176Z,27.37
2018-06-04T22:38:27.145Z,28.60
2018-06-04T22:41:01.972Z,30.98
2018-06-04T22:43:34.426Z,24.87
2018-06-04T22:46:07.945Z,24.25
2018-06-04T22:48:42.601Z,25.25
2018-06-04T22:51:15.567Z,26.40
2018-06-04T22:53:47.107Z,27.05
2018-06-04T22:56:21.047Z,26.83
2018-06-04T22:58:52.652Z,27.27
2018-06-04T23:01:24.216Z,26.67
2018-06-04T23:03:56.988Z,27.55
2018-06-04T23:06:30.246Z,25.30
2018-06-04T23:09:01.912Z,27.23
2018-06-04T23:11:32.840Z,31.65
2018-06-04T23:14:07.395Z,28.50
2018-06-04T23:16:37.440Z,33.47
2018-06-04T23:19:09.981Z,26.98
2018-06-04T23:21:43.239Z,28.77
2018-06-04T23:24:15.554Z,28.80
2018-06-04T23:26:48.963Z,33.92
2018-06-04T23:29:21.425Z,27.87
2018-06-04T23:31:54.573Z,30.25
2018-06-04T23:34:24.663Z,32.35
2018-06-04T23:36:57.908Z,29.20
2018-06-04T23:39:31.550Z,30.62
2018-06-04T23:42:03.524Z,31.80
2018-06-04T23:44:38.052Z,33.03
2018-06-04T23:47:09.791Z,30.17
2018-06-04T23:49:41.344Z,29.67
2018-06-04T23:52:14.578Z,35.17
2018-06-04T23:54:46.176Z,34.80
2018-06-04T23:57:16.148Z,35.38
2018-06-04T23:59:50.862Z,40.58
